createdAt,value
2022-11-29T00:00:06.983Z,64.85
2022-11-29T00:00:22.338Z,65.63
2022-11-29T00:00:58.331Z,66.53
2022-11-29T00:01:12.010Z,66.25
2022-11-29T00:01:26.593Z,65.57
2022-11-29T00:01:39.779Z,66.95
2022-11-29T00:01:53.541Z,67.22
2022-11-29T00:02:06.253Z,66.68
2022-11-29T00:02:19.013Z,65.30
2022-11-29T00:02:31.887Z,66.53
2022-11-29T00:02:44.548Z,69.18
2022-11-29T00:02:57.329Z,68.15
2022-11-29T00:03:10.074Z,65.57
2022-11-29T00:03:22.756Z,63.40
2022-11-29T00:03:35.479Z,62.67
2022-11-29T00:03:49.355Z,63.15
2022-11-29T00:04:02.498Z,66.40
2022-11-29T00:04:15.017Z,65.25
2022-11-29T00:04:27.866Z,63.92
2022-11-29T00:04:40.547Z,63.20
2022-11-29T00:04:53.235Z,63.78
2022-11-29T00:05:07.831Z,64.22
2022-11-29T00:05:20.381Z,65.18
2022-11-29T00:05:34.543Z,63.20
2022-11-29T00:05:47.075Z,61.80
2022-11-29T00:06:05.725Z,60.85
2022-11-29T00:06:20.581Z,61.88
2022-11-29T00:06:35.870Z,62.58
2022-11-29T00:06:48.580Z,63.33
2022-11-29T00:07:01.149Z,62.28
2022-11-29T00:07:14.243Z,65.97
2022-11-29T00:07:27.505Z,64.70
2022-11-29T00:07:40.396Z,59.35
2022-11-29T00:07:53.122Z,58.55
2022-11-29T00:08:07.804Z,59.78
2022-11-29T00:08:21.999Z,61.95
2022-11-29T00:08:35.357Z,60.58
2022-11-29T00:08:48.570Z,62.45
2022-11-29T00:09:06.269Z,63.72
2022-11-29T00:09:19.099Z,60.80
2022-11-29T00:09:31.704Z,60.47
2022-11-29T00:09:45.248Z,60.65
2022-11-29T00:09:57.788Z,58.90
2022-11-29T00:10:10.940Z,59.65
2022-11-29T00:10:23.572Z,60.58
2022-11-29T00:10:36.984Z,61.67
2022-11-29T00:10:49.972Z,60.13
2022-11-29T00:11:07.352Z,62.58
2022-11-29T00:11:37.476Z,67.32
2022-11-29T00:12:08.360Z,58.47
2022-11-29T00:12:21.977Z,59.83
2022-11-29T00:12:34.513Z,57.88
2022-11-29T00:12:48.646Z,57.13
2022-11-29T00:13:01.220Z,58.28
2022-11-29T00:13:13.804Z,60.47
2022-11-29T00:13:26.645Z,62.10
2022-11-29T00:13:39.624Z,64.03
2022-11-29T00:13:52.351Z,63.45
2022-11-29T00:14:05.739Z,61.70
2022-11-29T00:14:20.774Z,58.83
2022-11-29T00:14:33.400Z,57.95
2022-11-29T00:14:46.223Z,59.90
2022-11-29T00:14:59.106Z,61.63
2022-11-29T00:15:11.933Z,61.50
2022-11-29T00:15:24.480Z,60.50
2022-11-29T00:15:38.428Z,60.22
2022-11-29T00:15:51.017Z,58.90
2022-11-29T00:16:05.523Z,60.50
2022-11-29T00:16:18.571Z,61.03
2022-11-29T00:16:31.339Z,60.38
2022-11-29T00:16:44.302Z,60.58
2022-11-29T00:17:02.258Z,60.10
2022-11-29T00:17:15.315Z,57.97
2022-11-29T00:17:28.164Z,58.60
2022-11-29T00:17:40.804Z,60.35
2022-11-29T00:17:53.477Z,57.80
2022-11-29T00:18:07.465Z,55.92
2022-11-29T00:18:21.075Z,57.15
2022-11-29T00:18:34.311Z,57.58
2022-11-29T00:18:49.319Z,56.45
2022-11-29T00:19:02.506Z,59.55
2022-11-29T00:19:15.039Z,61.15
2022-11-29T00:19:28.195Z,59.63
2022-11-29T00:19:41.832Z,59.75
2022-11-29T00:19:54.451Z,58.58
2022-11-29T00:20:09.070Z,59.13
2022-11-29T00:20:21.811Z,60.03
2022-11-29T00:20:35.480Z,61.63
2022-11-29T00:20:47.992Z,59.40
2022-11-29T00:21:00.812Z,57.40
2022-11-29T00:21:13.383Z,58.05
2022-11-29T00:21:26.086Z,57.72
2022-11-29T00:21:38.687Z,58.92
2022-11-29T00:21:52.550Z,61.40
2022-11-29T00:22:05.356Z,61.90
2022-11-29T00:22:17.916Z,62.63
2022-11-29T00:22:30.543Z,62.97
2022-11-29T00:22:43.096Z,62.30
2022-11-29T00:22:56.652Z,62.03
2022-11-29T00:23:09.187Z,61.83
2022-11-29T00:23:21.861Z,59.38
2022-11-29T00:23:34.428Z,57.22
2022-11-29T00:23:46.975Z,59.45
2022-11-29T00:23:59.506Z,60.97
2022-11-29T00:24:12.277Z,60.95
2022-11-29T00:24:25.901Z,61.28
2022-11-29T00:24:38.463Z,61.97
2022-11-29T00:24:51.318Z,59.97
2022-11-29T00:25:04.678Z,59.72
2022-11-29T00:25:17.295Z,57.95
2022-11-29T00:25:29.970Z,59.20
2022-11-29T00:25:42.516Z,59.70
2022-11-29T00:25:55.058Z,59.40
2022-11-29T00:26:10.136Z,58.42
2022-11-29T00:26:22.727Z,57.92
2022-11-29T00:26:37.056Z,59.17
2022-11-29T00:26:49.762Z,59.05
2022-11-29T00:27:02.648Z,58.85
2022-11-29T00:27:16.246Z,57.38
2022-11-29T00:27:28.770Z,58.58
2022-11-29T00:27:41.295Z,59.35
2022-11-29T00:27:55.258Z,60.35
2022-11-29T00:28:07.770Z,58.95
2022-11-29T00:28:20.344Z,58.13
2022-11-29T00:28:33.301Z,57.60
2022-11-29T00:28:45.930Z,58.40
2022-11-29T00:28:59.536Z,60.00
2022-11-29T00:29:12.932Z,59.15
2022-11-29T00:29:25.573Z,56.50
2022-11-29T00:29:38.179Z,55.60
2022-11-29T00:29:50.716Z,55.10
2022-11-29T00:30:04.092Z,58.34
2022-11-29T00:30:17.405Z,59.30
2022-11-29T00:30:31.046Z,56.13
2022-11-29T00:30:43.664Z,56.95
2022-11-29T00:30:56.217Z,58.13
2022-11-29T00:31:15.245Z,57.63
2022-11-29T00:31:30.397Z,56.95
2022-11-29T00:31:43.766Z,56.28
2022-11-29T00:31:57.350Z,57.95
2022-11-29T00:32:10.084Z,59.25
2022-11-29T00:32:22.750Z,58.08
2022-11-29T00:32:36.154Z,57.50
2022-11-29T00:32:48.740Z,58.00
2022-11-29T00:33:03.143Z,58.10
2022-11-29T00:33:15.684Z,58.17
2022-11-29T00:33:28.309Z,58.33
2022-11-29T00:33:41.861Z,55.78
2022-11-29T00:33:56.439Z,54.55
2022-11-29T00:34:11.275Z,58.90
2022-11-29T00:34:23.920Z,60.55
2022-11-29T00:34:37.038Z,58.40
2022-11-29T00:34:50.620Z,56.97
2022-11-29T00:35:09.322Z,58.33
2022-11-29T00:35:22.392Z,57.85
2022-11-29T00:35:34.982Z,57.60
2022-11-29T00:35:47.526Z,59.20
2022-11-29T00:36:01.518Z,61.10
2022-11-29T00:36:15.014Z,60.25
2022-11-29T00:36:29.423Z,58.25
2022-11-29T00:36:42.038Z,56.28
2022-11-29T00:36:54.755Z,54.95
2022-11-29T00:37:07.548Z,55.60
2022-11-29T00:37:20.094Z,57.03
2022-11-29T00:37:32.661Z,57.85
2022-11-29T00:37:46.205Z,55.72
2022-11-29T00:37:58.982Z,54.67
2022-11-29T00:38:11.555Z,56.80
2022-11-29T00:38:24.186Z,57.47
2022-11-29T00:38:36.987Z,55.85
2022-11-29T00:38:49.832Z,55.40
2022-11-29T00:39:03.483Z,57.10
2022-11-29T00:39:17.198Z,56.28
2022-11-29T00:39:30.022Z,54.95
2022-11-29T00:39:42.564Z,56.22
2022-11-29T00:39:55.145Z,56.60
2022-11-29T00:40:08.952Z,59.83
2022-11-29T00:40:22.776Z,60.42
2022-11-29T00:40:35.332Z,58.67
2022-11-29T00:40:51.886Z,56.08
2022-11-29T00:41:04.902Z,56.38
2022-11-29T00:41:17.545Z,56.28
2022-11-29T00:41:30.134Z,54.97
2022-11-29T00:41:43.739Z,54.85
2022-11-29T00:41:56.477Z,56.03
2022-11-29T00:42:09.050Z,58.92
2022-11-29T00:42:21.661Z,59.38
2022-11-29T00:42:34.219Z,58.10
2022-11-29T00:42:46.789Z,56.38
2022-11-29T00:43:01.056Z,56.17
2022-11-29T00:43:14.610Z,58.75
2022-11-29T00:43:27.307Z,58.42
2022-11-29T00:43:40.114Z,56.45
2022-11-29T00:43:52.846Z,56.53
2022-11-29T00:44:05.523Z,57.28
2022-11-29T00:44:20.335Z,54.80
2022-11-29T00:44:34.384Z,53.65
2022-11-29T00:44:47.082Z,55.42
2022-11-29T00:44:59.752Z,56.28
2022-11-29T00:45:12.374Z,56.95
2022-11-29T00:45:24.992Z,56.42
2022-11-29T00:45:37.650Z,54.53
2022-11-29T00:45:50.305Z,54.95
2022-11-29T00:46:04.762Z,56.88
2022-11-29T00:46:18.385Z,57.65
2022-11-29T00:46:30.993Z,55.70
2022-11-29T00:46:43.558Z,54.70
2022-11-29T00:46:56.164Z,55.83
2022-11-29T00:47:08.710Z,57.38
2022-11-29T00:47:21.541Z,56.30
2022-11-29T00:47:35.134Z,54.38
2022-11-29T00:47:47.702Z,55.80
2022-11-29T00:48:00.400Z,57.42
2022-11-29T00:48:12.936Z,55.63
2022-11-29T00:48:25.575Z,54.08
2022-11-29T00:48:38.336Z,54.03
2022-11-29T00:48:51.922Z,57.15
2022-11-29T00:49:04.968Z,56.95
2022-11-29T00:49:18.027Z,53.85
2022-11-29T00:49:30.582Z,55.22
2022-11-29T00:49:43.330Z,54.45
2022-11-29T00:49:55.895Z,54.10
2022-11-29T00:50:08.905Z,54.15
2022-11-29T00:50:22.570Z,54.38
2022-11-29T00:50:35.168Z,53.38
2022-11-29T00:50:47.814Z,54.75
2022-11-29T00:51:00.862Z,55.33
2022-11-29T00:51:13.600Z,56.83
2022-11-29T00:51:26.257Z,57.58
2022-11-29T00:51:39.824Z,56.60
2022-11-29T00:51:52.703Z,57.10
2022-11-29T00:52:05.720Z,56.83
2022-11-29T00:52:18.375Z,57.35
2022-11-29T00:52:30.964Z,56.97
2022-11-29T00:52:43.753Z,56.90
2022-11-29T00:52:56.322Z,55.20
2022-11-29T00:53:08.856Z,55.55
2022-11-29T00:53:22.522Z,55.78
2022-11-29T00:53:36.196Z,58.25
2022-11-29T00:53:48.884Z,58.58
2022-11-29T00:54:01.522Z,57.72
2022-11-29T00:54:14.131Z,58.40
2022-11-29T00:54:26.749Z,55.58
2022-11-29T00:54:39.430Z,56.40
2022-11-29T00:54:52.064Z,56.38
2022-11-29T00:55:06.511Z,56.63
2022-11-29T00:55:19.126Z,55.15
2022-11-29T00:55:31.672Z,55.03
2022-11-29T00:55:44.404Z,55.83
2022-11-29T00:55:56.993Z,54.72
2022-11-29T00:56:11.284Z,54.30
2022-11-29T00:56:24.452Z,53.60
2022-11-29T00:56:38.090Z,54.75
2022-11-29T00:56:50.675Z,57.17
2022-11-29T00:57:03.195Z,59.45
2022-11-29T00:57:15.724Z,58.05
2022-11-29T00:57:28.274Z,56.42
2022-11-29T00:57:40.998Z,56.17
2022-11-29T00:57:54.508Z,53.58
2022-11-29T00:58:08.470Z,52.45
2022-11-29T00:58:21.312Z,54.95
2022-11-29T00:58:34.229Z,53.65
2022-11-29T00:58:48.546Z,54.10
2022-11-29T00:59:02.072Z,55.45
2022-11-29T00:59:14.649Z,54.20
2022-11-29T00:59:27.198Z,54.88
2022-11-29T00:59:39.760Z,54.83
2022-11-29T00:59:52.307Z,54.22
2022-11-29T01:00:06.438Z,52.22
2022-11-29T01:00:20.506Z,52.25
2022-11-29T01:00:33.097Z,53.97
2022-11-29T01:00:45.982Z,57.83
2022-11-29T01:00:58.956Z,61.35
2022-11-29T01:01:11.830Z,59.47
2022-11-29T01:01:24.610Z,58.83
2022-11-29T01:01:38.270Z,59.38
2022-11-29T01:01:50.912Z,58.35
2022-11-29T01:02:03.634Z,57.90
2022-11-29T01:02:16.338Z,57.78
2022-11-29T01:02:29.007Z,56.92
2022-11-29T01:02:41.759Z,57.15
2022-11-29T01:02:55.436Z,56.58
2022-11-29T01:03:08.000Z,55.65
2022-11-29T01:03:20.758Z,56.92
2022-11-29T01:03:33.349Z,56.03
2022-11-29T01:03:45.964Z,53.92
2022-11-29T01:04:01.494Z,56.45
2022-11-29T01:04:14.240Z,60.42
2022-11-29T01:04:26.817Z,60.70
2022-11-29T01:04:39.407Z,58.15
2022-11-29T01:04:51.993Z,57.17
2022-11-29T01:05:05.088Z,56.65
2022-11-29T01:05:18.120Z,56.90
2022-11-29T01:05:31.558Z,56.47
2022-11-29T01:05:45.172Z,55.95
2022-11-29T01:06:01.183Z,57.83
2022-11-29T01:06:15.440Z,59.75
2022-11-29T01:06:28.234Z,58.65
2022-11-29T01:06:40.816Z,58.70
2022-11-29T01:06:53.639Z,57.97
2022-11-29T01:07:07.192Z,56.20
2022-11-29T01:07:19.757Z,57.85
2022-11-29T01:07:32.346Z,57.97
2022-11-29T01:07:44.972Z,57.08
2022-11-29T01:07:57.857Z,58.30
2022-11-29T01:08:11.516Z,60.10
2022-11-29T01:08:24.054Z,58.40
2022-11-29T01:08:37.538Z,55.92
2022-11-29T01:08:51.306Z,55.10
2022-11-29T01:09:04.503Z,57.60
2022-11-29T01:09:17.096Z,60.08
2022-11-29T01:09:29.932Z,59.33
2022-11-29T01:09:42.545Z,59.22
2022-11-29T01:09:55.088Z,59.17
2022-11-29T01:10:08.547Z,58.97
2022-11-29T01:10:22.168Z,58.45
2022-11-29T01:10:34.858Z,58.97
2022-11-29T01:10:47.474Z,58.95
2022-11-29T01:11:05.575Z,59.83
2022-11-29T01:11:22.922Z,61.85
2022-11-29T01:11:35.956Z,63.40
2022-11-29T01:11:50.330Z,63.45
2022-11-29T01:12:02.929Z,59.75
2022-11-29T01:12:15.543Z,57.35
2022-11-29T01:12:28.197Z,58.60
2022-11-29T01:12:40.858Z,59.42
2022-11-29T01:12:53.573Z,59.75
2022-11-29T01:13:08.932Z,57.22
2022-11-29T01:13:21.458Z,58.58
2022-11-29T01:13:34.402Z,60.05
2022-11-29T01:13:48.713Z,59.45
2022-11-29T01:14:02.753Z,58.88
2022-11-29T01:14:15.441Z,58.92
2022-11-29T01:14:28.172Z,60.08
2022-11-29T01:14:40.732Z,61.33
2022-11-29T01:14:53.352Z,60.30
2022-11-29T01:15:07.633Z,60.25
2022-11-29T01:15:20.267Z,62.03
2022-11-29T01:15:34.032Z,61.03
2022-11-29T01:15:46.616Z,57.35
2022-11-29T01:15:59.415Z,57.67
2022-11-29T01:16:13.544Z,59.25
2022-11-29T01:16:27.383Z,58.67
2022-11-29T01:16:40.123Z,59.20
2022-11-29T01:16:53.696Z,61.05
2022-11-29T01:17:06.404Z,61.22
2022-11-29T01:17:19.005Z,60.40
2022-11-29T01:17:31.675Z,59.75
2022-11-29T01:17:44.327Z,59.92
2022-11-29T01:17:56.933Z,63.10
2022-11-29T01:18:10.496Z,62.13
2022-11-29T01:18:23.592Z,59.72
2022-11-29T01:18:37.264Z,57.72
2022-11-29T01:18:49.860Z,59.67
2022-11-29T01:19:02.834Z,61.88
2022-11-29T01:19:15.494Z,59.97
2022-11-29T01:19:28.124Z,61.15
2022-11-29T01:19:45.242Z,62.42
2022-11-29T01:20:01.914Z,63.08
2022-11-29T01:20:14.857Z,61.05
2022-11-29T01:20:27.652Z,59.67
2022-11-29T01:20:40.210Z,58.03
2022-11-29T01:20:57.916Z,57.90
2022-11-29T01:21:14.878Z,61.10
2022-11-29T01:21:27.610Z,64.07
2022-11-29T01:21:40.212Z,61.30
2022-11-29T01:21:52.764Z,59.58
2022-11-29T01:22:05.367Z,59.75
2022-11-29T01:22:18.602Z,60.97
2022-11-29T01:22:31.503Z,61.53
2022-11-29T01:22:44.095Z,63.95
2022-11-29T01:22:57.667Z,64.47
2022-11-29T01:23:10.250Z,62.25
2022-11-29T01:23:22.771Z,61.80
2022-11-29T01:23:36.848Z,62.15
2022-11-29T01:23:50.502Z,60.75
2022-11-29T01:24:03.255Z,60.97
2022-11-29T01:24:15.839Z,61.25
2022-11-29T01:24:30.912Z,63.53
2022-11-29T01:24:43.703Z,63.38
2022-11-29T01:24:56.504Z,61.13
2022-11-29T01:25:11.256Z,61.78
2022-11-29T01:25:23.914Z,63.50
2022-11-29T01:25:36.520Z,65.43
2022-11-29T01:25:56.547Z,63.63
2022-11-29T01:26:13.218Z,60.72
2022-11-29T01:26:28.806Z,60.58
2022-11-29T01:26:41.394Z,62.20
2022-11-29T01:26:54.223Z,61.50
2022-11-29T01:27:06.784Z,59.08
2022-11-29T01:27:19.359Z,59.17
2022-11-29T01:27:32.513Z,59.85
2022-11-29T01:27:45.476Z,60.45
2022-11-29T01:27:59.027Z,63.13
2022-11-29T01:28:12.950Z,64.53
2022-11-29T01:28:25.548Z,62.78
2022-11-29T01:28:39.125Z,60.30
2022-11-29T01:28:53.627Z,61.53
2022-11-29T01:29:07.843Z,60.95
2022-11-29T01:29:20.447Z,64.22
2022-11-29T01:29:33.006Z,66.70
2022-11-29T01:29:45.541Z,66.60
2022-11-29T01:29:58.184Z,65.93
2022-11-29T01:30:11.499Z,63.70
2022-11-29T01:30:24.160Z,61.10
2022-11-29T01:30:38.070Z,63.95
2022-11-29T01:30:50.737Z,66.68
2022-11-29T01:31:08.685Z,65.55
2022-11-29T01:31:23.640Z,63.67
2022-11-29T01:31:36.534Z,64.70
2022-11-29T01:31:49.107Z,64.10
2022-11-29T01:32:01.675Z,64.65
2022-11-29T01:32:14.469Z,65.32
2022-11-29T01:32:28.125Z,68.05
2022-11-29T01:32:40.653Z,67.93
2022-11-29T01:32:53.384Z,67.30
2022-11-29T01:33:05.962Z,67.03
2022-11-29T01:33:18.531Z,64.80
2022-11-29T01:33:31.139Z,64.45
2022-11-29T01:33:43.801Z,63.67
2022-11-29T01:33:58.921Z,63.60
2022-11-29T01:34:11.592Z,62.17
2022-11-29T01:34:24.162Z,59.85
2022-11-29T01:34:37.512Z,61.63
2022-11-29T01:34:50.326Z,63.45
2022-11-29T01:35:02.933Z,63.63
2022-11-29T01:35:15.778Z,62.47
2022-11-29T01:35:29.333Z,62.88
2022-11-29T01:35:47.548Z,65.03
2022-11-29T01:36:00.405Z,64.50
2022-11-29T01:36:14.462Z,63.78
2022-11-29T01:36:29.143Z,64.70
2022-11-29T01:36:41.718Z,64.95
2022-11-29T01:36:54.242Z,66.20
2022-11-29T01:37:06.832Z,64.38
2022-11-29T01:37:19.370Z,62.42
2022-11-29T01:37:33.423Z,63.97
2022-11-29T01:37:45.977Z,64.20
2022-11-29T01:37:58.534Z,62.28
2022-11-29T01:38:11.120Z,62.30
2022-11-29T01:38:23.796Z,63.92
2022-11-29T01:38:36.865Z,65.28
2022-11-29T01:38:49.562Z,64.60
2022-11-29T01:39:05.435Z,65.47
2022-11-29T01:39:18.059Z,67.63
2022-11-29T01:39:30.913Z,66.97
2022-11-29T01:39:43.609Z,66.97
2022-11-29T01:39:56.468Z,65.20
2022-11-29T01:40:09.795Z,64.80
2022-11-29T01:40:22.573Z,63.88
2022-11-29T01:40:35.214Z,64.18
2022-11-29T01:40:57.617Z,62.92
2022-11-29T01:41:16.000Z,63.05
2022-11-29T01:41:31.318Z,64.07
2022-11-29T01:41:43.857Z,66.10
2022-11-29T01:41:56.660Z,67.50
2022-11-29T01:42:10.741Z,65.05
2022-11-29T01:42:23.605Z,65.20
2022-11-29T01:42:37.138Z,66.38
2022-11-29T01:42:49.709Z,64.20
2022-11-29T01:43:02.253Z,62.97
2022-11-29T01:43:18.457Z,62.90
2022-11-29T01:43:31.904Z,63.17
2022-11-29T01:43:57.059Z,63.72
2022-11-29T01:44:44.176Z,64.90
2022-11-29T01:45:08.187Z,66.35
2022-11-29T01:45:23.844Z,68.32
2022-11-29T01:45:38.435Z,69.40
2022-11-29T01:45:51.297Z,67.82
2022-11-29T01:46:05.712Z,70.53
2022-11-29T01:46:18.311Z,72.78
2022-11-29T01:46:33.544Z,69.18
2022-11-29T01:46:47.197Z,64.90
2022-11-29T01:46:59.772Z,64.03
2022-11-29T01:47:12.886Z,67.00
2022-11-29T01:47:25.442Z,66.85
2022-11-29T01:47:43.910Z,66.15
2022-11-29T01:47:59.125Z,68.03
2022-11-29T01:48:14.419Z,70.03
2022-11-29T01:48:31.165Z,68.10
2022-11-29T01:48:43.992Z,65.75
2022-11-29T01:49:00.509Z,68.63
2022-11-29T01:49:18.456Z,68.47
2022-11-29T01:49:35.840Z,65.10
2022-11-29T01:49:50.085Z,67.22
2022-11-29T01:50:03.207Z,68.43
2022-11-29T01:50:16.472Z,65.55
2022-11-29T01:50:29.040Z,65.15
2022-11-29T01:50:42.604Z,66.30
2022-11-29T01:50:59.449Z,68.70
2022-11-29T01:51:13.157Z,70.43
2022-11-29T01:51:28.153Z,70.07
2022-11-29T01:51:44.856Z,68.53
2022-11-29T01:52:02.194Z,66.53
2022-11-29T01:52:19.642Z,67.75
2022-11-29T01:52:33.384Z,67.68
2022-11-29T01:52:47.756Z,67.90
2022-11-29T01:53:00.772Z,67.93
2022-11-29T01:53:15.178Z,66.72
2022-11-29T01:53:28.480Z,64.68
2022-11-29T01:53:41.292Z,66.72
2022-11-29T01:53:55.256Z,70.45
2022-11-29T01:54:11.128Z,69.97
2022-11-29T01:54:23.901Z,70.78
2022-11-29T01:54:41.019Z,72.57
2022-11-29T01:54:58.519Z,70.55
2022-11-29T01:55:11.488Z,69.28
2022-11-29T01:55:24.359Z,69.88
2022-11-29T01:55:41.666Z,67.50
2022-11-29T01:56:01.609Z,69.10
2022-11-29T01:56:16.108Z,67.00
2022-11-29T01:56:30.454Z,66.60
2022-11-29T01:56:45.954Z,66.03
2022-11-29T01:56:59.682Z,66.78
2022-11-29T01:57:13.432Z,71.07
2022-11-29T01:57:27.069Z,71.40
2022-11-29T01:57:42.681Z,70.68
2022-11-29T01:57:55.270Z,70.30
2022-11-29T01:58:09.030Z,72.05
2022-11-29T01:58:23.579Z,71.55
2022-11-29T01:58:36.592Z,68.25
2022-11-29T01:58:49.157Z,70.25
2022-11-29T01:59:04.452Z,71.38
2022-11-29T01:59:21.618Z,70.25
2022-11-29T01:59:36.555Z,68.95
2022-11-29T01:59:52.034Z,70.95
2022-11-29T02:00:08.868Z,72.57
2022-11-29T02:00:21.796Z,68.57
2022-11-29T02:00:35.012Z,69.57
2022-11-29T02:00:48.412Z,72.80
2022-11-29T02:01:02.555Z,70.18
2022-11-29T02:01:15.668Z,66.68
2022-11-29T02:01:28.406Z,67.07
2022-11-29T02:01:41.253Z,68.38
2022-11-29T02:01:59.416Z,69.07
2022-11-29T02:02:15.190Z,68.18
2022-11-29T02:02:33.340Z,68.15
2022-11-29T02:02:52.052Z,66.78
2022-11-29T02:03:10.309Z,67.45
2022-11-29T02:03:22.898Z,66.85
2022-11-29T02:03:35.503Z,66.63
2022-11-29T02:03:48.128Z,68.22
2022-11-29T02:04:00.816Z,69.43
2022-11-29T02:04:16.155Z,69.43
2022-11-29T02:04:31.523Z,67.03
2022-11-29T02:04:45.867Z,66.60
2022-11-29T02:04:59.870Z,71.70
2022-11-29T02:05:14.797Z,71.28
2022-11-29T02:05:28.048Z,67.40
2022-11-29T02:05:44.194Z,67.97
2022-11-29T02:05:56.756Z,68.43
2022-11-29T02:06:09.720Z,67.13
2022-11-29T02:06:23.014Z,67.45
2022-11-29T02:06:36.344Z,66.68
2022-11-29T02:06:49.027Z,65.82
2022-11-29T02:07:02.934Z,63.72
2022-11-29T02:07:16.105Z,64.22
2022-11-29T02:07:29.267Z,64.93
2022-11-29T02:07:44.823Z,64.60
2022-11-29T02:08:01.287Z,64.97
2022-11-29T02:08:17.129Z,68.16
2022-11-29T02:08:39.898Z,67.78
2022-11-29T02:08:53.481Z,66.57
2022-11-29T02:09:16.579Z,64.75
2022-11-29T02:09:30.158Z,67.45
2022-11-29T02:09:42.834Z,67.22
2022-11-29T02:09:55.407Z,68.25
2022-11-29T02:10:08.817Z,68.45
2022-11-29T02:10:28.684Z,67.65
2022-11-29T02:10:55.920Z,62.67
2022-11-29T02:11:40.997Z,64.22
2022-11-29T02:12:17.065Z,66.57
2022-11-29T02:12:40.059Z,65.60
2022-11-29T02:13:01.455Z,65.30
2022-11-29T02:13:24.872Z,66.75
2022-11-29T02:13:51.085Z,63.75
2022-11-29T02:14:17.244Z,64.22
2022-11-29T02:14:54.084Z,64.45
2022-11-29T02:15:19.444Z,69.97
2022-11-29T02:15:41.702Z,63.08
2022-11-29T02:16:02.467Z,66.63
2022-11-29T02:16:25.621Z,65.20
2022-11-29T02:16:55.054Z,65.72
2022-11-29T02:17:17.375Z,63.65
2022-11-29T02:17:36.247Z,66.38
2022-11-29T02:18:02.618Z,69.80
2022-11-29T02:18:22.620Z,63.92
2022-11-29T02:18:45.521Z,65.70
2022-11-29T02:19:12.692Z,66.90
2022-11-29T02:19:57.891Z,68.50
2022-11-29T02:20:35.687Z,64.75
2022-11-29T02:21:16.521Z,66.32
2022-11-29T02:21:41.692Z,65.88
2022-11-29T02:22:03.500Z,64.40
2022-11-29T02:22:22.735Z,67.10
2022-11-29T02:22:41.663Z,65.13
2022-11-29T02:23:00.694Z,65.93
2022-11-29T02:23:56.518Z,66.45
2022-11-29T02:24:34.456Z,63.80
2022-11-29T02:25:02.750Z,63.88
2022-11-29T02:25:40.181Z,62.83
2022-11-29T02:26:03.781Z,64.93
2022-11-29T02:26:30.830Z,64.30
2022-11-29T02:27:12.568Z,62.58
2022-11-29T02:28:14.870Z,68.82
2022-11-29T02:28:45.047Z,64.63
2022-11-29T02:29:15.937Z,62.42
2022-11-29T02:29:46.958Z,62.80
2022-11-29T02:30:20.792Z,70.07
2022-11-29T02:30:55.370Z,65.30
2022-11-29T02:31:38.179Z,65.38
2022-11-29T02:32:49.009Z,62.72
2022-11-29T02:33:37.841Z,66.57
2022-11-29T02:34:28.578Z,61.10
2022-11-29T02:34:58.418Z,62.70
2022-11-29T02:35:23.279Z,63.63
2022-11-29T02:35:56.212Z,64.63
2022-11-29T02:36:40.668Z,61.83
2022-11-29T02:37:14.768Z,63.28
2022-11-29T02:37:42.845Z,63.33
2022-11-29T02:38:22.007Z,61.28
2022-11-29T02:38:58.939Z,60.80
2022-11-29T02:39:49.551Z,62.67
2022-11-29T02:40:17.021Z,63.30
2022-11-29T02:40:46.148Z,61.42
2022-11-29T02:41:19.594Z,64.97
2022-11-29T02:41:50.733Z,66.38
2022-11-29T02:42:25.659Z,64.43
2022-11-29T02:43:04.433Z,61.47
2022-11-29T02:43:32.996Z,61.72
2022-11-29T02:44:25.816Z,60.35
2022-11-29T02:44:58.472Z,63.10
2022-11-29T02:45:16.905Z,61.78
2022-11-29T02:45:53.673Z,64.35
2022-11-29T02:46:21.987Z,63.72
2022-11-29T02:46:49.808Z,62.70
2022-11-29T02:47:15.645Z,60.92
2022-11-29T02:47:37.808Z,61.92
2022-11-29T02:48:01.495Z,61.63
2022-11-29T02:48:33.243Z,60.63
2022-11-29T02:48:55.595Z,62.95
2022-11-29T02:49:16.683Z,64.65
2022-11-29T02:49:45.788Z,62.70
2022-11-29T02:50:19.380Z,61.55
2022-11-29T02:50:39.037Z,61.30
2022-11-29T02:50:58.055Z,63.95
2022-11-29T02:51:16.045Z,65.38
2022-11-29T02:51:39.336Z,60.70
2022-11-29T02:51:58.272Z,60.13
2022-11-29T02:52:17.579Z,61.95
2022-11-29T02:52:36.422Z,61.60
2022-11-29T02:53:00.580Z,60.65
2022-11-29T02:53:18.742Z,62.42
2022-11-29T02:53:38.320Z,61.85
2022-11-29T02:53:56.077Z,59.30
2022-11-29T02:54:17.459Z,59.80
2022-11-29T02:54:40.098Z,60.95
2022-11-29T02:54:58.562Z,60.92
2022-11-29T02:55:20.053Z,58.50
2022-11-29T02:55:38.604Z,62.83
2022-11-29T02:56:00.055Z,62.72
2022-11-29T02:56:23.357Z,59.78
2022-11-29T02:56:42.229Z,60.10
2022-11-29T02:56:59.702Z,63.47
2022-11-29T02:57:23.928Z,62.83
2022-11-29T02:57:43.422Z,60.17
2022-11-29T02:58:02.283Z,62.28
2022-11-29T02:58:26.369Z,64.28
2022-11-29T02:58:47.180Z,63.08
2022-11-29T02:59:05.346Z,61.67
2022-11-29T02:59:34.839Z,62.03
2022-11-29T02:59:58.239Z,65.45
2022-11-29T03:00:15.045Z,60.90
2022-11-29T03:00:28.508Z,62.28
2022-11-29T03:00:49.504Z,62.60
2022-11-29T03:01:10.634Z,64.78
2022-11-29T03:01:31.253Z,63.10
2022-11-29T03:01:53.437Z,63.65
2022-11-29T03:02:18.005Z,63.97
2022-11-29T03:02:36.823Z,63.08
2022-11-29T03:02:56.905Z,62.75
2022-11-29T03:03:19.439Z,62.25
2022-11-29T03:03:40.076Z,64.40
2022-11-29T03:04:02.848Z,64.03
2022-11-29T03:04:26.061Z,61.92
2022-11-29T03:04:45.606Z,64.07
2022-11-29T03:05:10.675Z,64.82
2022-11-29T03:05:29.862Z,61.25
2022-11-29T03:05:51.045Z,64.28
2022-11-29T03:06:13.821Z,61.33
2022-11-29T03:06:39.711Z,61.38
2022-11-29T03:07:01.869Z,58.45
2022-11-29T03:07:24.019Z,58.15
2022-11-29T03:07:45.267Z,61.65
2022-11-29T03:08:07.216Z,58.47
2022-11-29T03:08:32.015Z,60.08
2022-11-29T03:08:53.892Z,61.25
2022-11-29T03:09:12.562Z,60.67
2022-11-29T03:09:36.291Z,64.90
2022-11-29T03:09:57.679Z,62.97
2022-11-29T03:10:19.729Z,62.50
2022-11-29T03:10:39.424Z,64.88
2022-11-29T03:11:01.084Z,67.45
2022-11-29T03:11:20.633Z,61.20
2022-11-29T03:11:42.231Z,63.65
2022-11-29T03:12:04.064Z,63.30
2022-11-29T03:12:29.438Z,62.35
2022-11-29T03:12:46.430Z,62.72
2022-11-29T03:13:00.237Z,65.05
2022-11-29T03:13:21.408Z,65.53
2022-11-29T03:13:45.771Z,64.60
2022-11-29T03:14:14.661Z,65.47
2022-11-29T03:14:31.180Z,62.40
2022-11-29T03:14:55.440Z,62.97
2022-11-29T03:15:22.728Z,61.95
2022-11-29T03:15:41.766Z,62.67
2022-11-29T03:16:03.173Z,60.78
2022-11-29T03:16:29.903Z,63.78
2022-11-29T03:16:51.158Z,64.32
2022-11-29T03:17:13.982Z,63.60
2022-11-29T03:17:40.802Z,64.80
2022-11-29T03:18:03.753Z,65.03
2022-11-29T03:18:33.539Z,60.95
2022-11-29T03:19:00.162Z,61.08
2022-11-29T03:19:41.220Z,66.32
2022-11-29T03:20:07.978Z,63.22
2022-11-29T03:20:28.687Z,62.40
2022-11-29T03:20:55.661Z,62.78
2022-11-29T03:21:18.290Z,62.08
2022-11-29T03:21:41.991Z,64.82
2022-11-29T03:22:05.667Z,67.25
2022-11-29T03:22:29.657Z,63.08
2022-11-29T03:22:47.238Z,66.18
2022-11-29T03:23:14.237Z,63.97
2022-11-29T03:23:34.931Z,65.82
2022-11-29T03:23:50.578Z,65.13
2022-11-29T03:24:09.419Z,63.80
2022-11-29T03:24:28.895Z,62.95
2022-11-29T03:24:48.217Z,66.32
2022-11-29T03:25:06.534Z,65.63
2022-11-29T03:25:28.919Z,63.88
2022-11-29T03:25:46.175Z,63.38
2022-11-29T03:26:05.063Z,63.30
2022-11-29T03:26:21.395Z,62.20
2022-11-29T03:26:40.196Z,62.88
2022-11-29T03:27:00.617Z,63.55
2022-11-29T03:27:21.325Z,64.00
2022-11-29T03:27:41.012Z,63.58
2022-11-29T03:28:06.576Z,62.88
2022-11-29T03:28:23.479Z,63.15
2022-11-29T03:28:42.582Z,60.58
2022-11-29T03:29:07.109Z,65.72
2022-11-29T03:29:27.027Z,66.97
2022-11-29T03:29:46.891Z,64.97
2022-11-29T03:30:03.515Z,62.47
2022-11-29T03:30:19.229Z,65.18
2022-11-29T03:30:34.541Z,65.45
2022-11-29T03:30:54.490Z,65.75
2022-11-29T03:31:14.970Z,68.38
2022-11-29T03:31:34.335Z,68.60
2022-11-29T03:31:53.079Z,64.13
2022-11-29T03:32:12.656Z,65.00
2022-11-29T03:32:31.243Z,67.88
2022-11-29T03:32:52.360Z,66.85
2022-11-29T03:33:13.105Z,65.57
2022-11-29T03:33:36.921Z,62.97
2022-11-29T03:34:00.205Z,64.93
2022-11-29T03:34:20.852Z,65.22
2022-11-29T03:34:54.316Z,66.90
2022-11-29T03:35:17.008Z,65.53
2022-11-29T03:35:37.687Z,65.90
2022-11-29T03:35:56.971Z,64.93
2022-11-29T03:36:18.127Z,64.43